メインページ
METAR-TAF:

METAR-TAF

空港 :

西安, 中華人民共和国

西安咸陽国際空港

緯度: 34-26N, 経度: 108-45E, 海抜: 479m

現時点の気象観測

当レポートは1時間3分前の04:00(UTC)に作成
南/南西の風 4kt、南/南東から南西の間で変化する
気温 18°C
湿度 73%
気圧 1023 hPa
視程: 4500m
煙霧

METAR: ZLXY 210400Z 20002MPS 160V230 4500 HZ NSC 18/13 Q1023 NOSIG

時間: 13:03 (05:03 UTC)

予報

当レポートは9時間35分前の19:28(UTC)に作成
予報は21日の 00時(UTC)から 21日の 24時(UTC)まで有効
西/南西の風 6kt
視程: 2000m
21日の 01時(UTC)から 21日の 02時(UTC)まで徐々に
視程: 3000m
21日の 14時(UTC)から 21日の 15時(UTC)まで徐々に
視程: 2400m

TAF: ZLXY 201928Z 2100/2124 24003MPS 2000 BR NSC TX21/2108Z TN12/2123Z BECMG 2101/2102 3000 BECMG 2114/2115 2400 BR

4,000以上の空港の気象観測と天気予報(METAR報とTAF報)

利用可能な観測所は地図上に黄色い丸と赤い丸で示す。

丸の上にカーソルを重ねると観測所名を参照できる。

次にクリックすると気象観測と天気予報を参照できる。

マップの切り替え:黒色「×」印の緑ボタンをクリックして拡大、「-」印の緑ボタンをクリックして縮小、緑色の三角印をクリックして隣りの地図に切り替え


METAR-TAF: